createdAt,value
2022-09-17T00:01:34.951Z,37.2
2022-09-17T00:03:39.316Z,37.17
2022-09-17T00:05:43.644Z,37.13
2022-09-17T00:07:47.966Z,37.09
2022-09-17T00:09:52.294Z,37
2022-09-17T00:11:56.660Z,36.99
2022-09-17T00:14:01.551Z,37.2
2022-09-17T00:16:06.255Z,37.03
2022-09-17T00:18:10.602Z,37.16
2022-09-17T00:20:14.923Z,37.08
2022-09-17T00:22:19.253Z,37.06
2022-09-17T00:24:23.618Z,37.04
2022-09-17T00:26:27.956Z,37.05
2022-09-17T00:28:32.302Z,36.94
2022-09-17T00:30:36.631Z,36.96
2022-09-17T00:32:40.959Z,36.82
2022-09-17T00:34:45.281Z,36.62
2022-09-17T00:36:49.614Z,36.88
2022-09-17T00:38:56.108Z,36.54
2022-09-17T00:41:00.477Z,36.53
2022-09-17T00:43:04.817Z,36.7
2022-09-17T00:45:09.131Z,36.78
2022-09-17T00:47:13.444Z,36.6
2022-09-17T00:49:17.745Z,36.47
2022-09-17T00:51:22.038Z,36.46
2022-09-17T00:53:26.382Z,36.55
2022-09-17T00:55:30.709Z,36.59
2022-09-17T00:57:35.113Z,36.42
2022-09-17T00:59:39.428Z,36.35
2022-09-17T01:01:44.002Z,36.28
2022-09-17T01:03:48.336Z,36.33
2022-09-17T01:05:52.668Z,36.3
2022-09-17T01:07:57.004Z,36.45
2022-09-17T01:10:01.328Z,36.46
2022-09-17T01:12:05.653Z,36.22
2022-09-17T01:14:10.086Z,36.27
2022-09-17T01:16:14.648Z,36.33
2022-09-17T01:18:18.988Z,35.96
2022-09-17T01:20:23.303Z,36.22
2022-09-17T01:22:27.710Z,36.05
2022-09-17T01:24:32.011Z,36.3
2022-09-17T01:26:36.336Z,36.1
2022-09-17T01:28:40.642Z,36.13
2022-09-17T01:30:44.952Z,36.11
2022-09-17T01:32:49.280Z,36.13
2022-09-17T01:34:53.597Z,36.14
2022-09-17T01:36:57.908Z,36.32
2022-09-17T01:39:02.222Z,36.09
2022-09-17T01:41:06.507Z,36.18
2022-09-17T01:43:10.822Z,36.18
2022-09-17T01:45:15.216Z,36.4
2022-09-17T01:47:22.964Z,36.31
2022-09-17T01:49:27.339Z,36.06
2022-09-17T01:51:31.644Z,36.15
2022-09-17T01:53:36.056Z,36.26
2022-09-17T01:55:40.400Z,36.14
2022-09-17T01:57:44.738Z,36.15
2022-09-17T01:59:49.104Z,36.23
2022-09-17T02:01:53.607Z,36.2
2022-09-17T02:03:58.013Z,36.21
2022-09-17T02:06:02.311Z,36.21
2022-09-17T02:08:06.601Z,36.19
2022-09-17T02:10:10.927Z,36.41
2022-09-17T02:12:15.194Z,36.48
2022-09-17T02:14:19.478Z,36.29
2022-09-17T02:16:24.047Z,36.5
2022-09-17T02:18:28.435Z,36.43
2022-09-17T02:20:32.732Z,36.61
2022-09-17T02:22:37.043Z,36.47
2022-09-17T02:24:41.333Z,36.64
2022-09-17T02:26:45.613Z,36.66
2022-09-17T02:28:49.945Z,36.54
2022-09-17T02:30:54.374Z,36.7
2022-09-17T02:32:58.687Z,36.62
2022-09-17T02:35:03.016Z,36.76
2022-09-17T02:37:07.299Z,36.63
2022-09-17T02:39:11.586Z,36.54
2022-09-17T02:41:15.916Z,36.8
2022-09-17T02:43:20.222Z,36.75
2022-09-17T02:45:24.541Z,36.63
2022-09-17T02:47:28.846Z,36.78
2022-09-17T02:49:33.189Z,36.79
2022-09-17T02:51:37.496Z,36.7
2022-09-17T02:53:41.789Z,36.71
2022-09-17T02:55:46.123Z,36.74
2022-09-17T02:57:50.644Z,36.68
2022-09-17T02:59:55.027Z,36.68
2022-09-17T03:01:59.639Z,36.8
2022-09-17T03:04:04.029Z,36.96
2022-09-17T03:06:08.327Z,36.87
2022-09-17T03:08:12.722Z,36.97
2022-09-17T03:10:17.059Z,36.97
2022-09-17T03:12:21.470Z,36.87
2022-09-17T03:14:25.845Z,36.89
2022-09-17T03:16:30.473Z,36.98
2022-09-17T03:18:34.832Z,37.01
2022-09-17T03:20:39.129Z,36.98
2022-09-17T03:22:43.464Z,36.93
2022-09-17T03:24:47.768Z,36.92
2022-09-17T03:26:52.093Z,37.21
2022-09-17T03:28:56.414Z,37.14
2022-09-17T03:31:00.919Z,37.21
2022-09-17T03:33:05.297Z,37.29
2022-09-17T03:35:09.591Z,37.33
2022-09-17T03:37:13.912Z,37.58
2022-09-17T03:39:18.210Z,37.53
2022-09-17T03:41:22.504Z,37.78
2022-09-17T03:43:26.891Z,37.71
2022-09-17T03:45:31.164Z,37.61
2022-09-17T03:47:35.432Z,37.77
2022-09-17T03:49:39.735Z,37.79
2022-09-17T03:51:44.018Z,37.88
2022-09-17T03:53:48.432Z,37.82
2022-09-17T03:55:52.764Z,37.9
2022-09-17T03:57:57.107Z,37.88
2022-09-17T04:00:01.427Z,38.01
2022-09-17T04:02:06.265Z,37.99
2022-09-17T04:04:10.762Z,37.99
2022-09-17T04:06:15.103Z,38.05
2022-09-17T04:08:19.401Z,38.06
2022-09-17T04:10:23.738Z,37.94
2022-09-17T04:12:28.051Z,37.99
2022-09-17T04:14:32.384Z,38.02
2022-09-17T04:16:36.887Z,37.9
2022-09-17T04:18:41.207Z,38.02
2022-09-17T04:20:45.515Z,37.92
2022-09-17T04:22:49.848Z,37.98
2022-09-17T04:24:54.142Z,38.22
2022-09-17T04:26:58.435Z,37.96
2022-09-17T04:29:02.738Z,38.05
2022-09-17T04:31:07.346Z,38.12
2022-09-17T04:33:11.703Z,38.06
2022-09-17T04:35:16.035Z,38.28
2022-09-17T04:37:20.373Z,38.26
2022-09-17T04:39:24.707Z,38.31
2022-09-17T04:41:29.018Z,38.55
2022-09-17T04:43:33.453Z,38.68
2022-09-17T04:45:37.777Z,38.8
2022-09-17T04:47:42.081Z,38.86
2022-09-17T04:49:46.352Z,38.91
2022-09-17T04:51:50.694Z,38.89
2022-09-17T04:53:54.987Z,39.03
2022-09-17T04:55:59.374Z,38.96
2022-09-17T04:58:03.841Z,39.16
2022-09-17T05:00:08.123Z,39.03
2022-09-17T05:02:12.701Z,39.08
2022-09-17T05:04:17.079Z,39.27
2022-09-17T05:06:21.435Z,39.48
2022-09-17T05:08:25.741Z,39.25
2022-09-17T05:10:30.096Z,39.13
2022-09-17T05:12:36.604Z,39.29
2022-09-17T05:14:40.912Z,39.16
2022-09-17T05:16:45.275Z,39.11
2022-09-17T05:18:49.552Z,39.27
2022-09-17T05:20:53.873Z,39.18
2022-09-17T05:22:58.143Z,39.26
2022-09-17T05:25:02.529Z,39.19
2022-09-17T05:27:06.848Z,39.56
2022-09-17T05:29:11.145Z,39.14
2022-09-17T05:31:15.677Z,38.98
2022-09-17T05:33:20.026Z,39.35
2022-09-17T05:35:24.329Z,39.12
2022-09-17T05:37:28.676Z,39.28
2022-09-17T05:39:32.970Z,39.08
2022-09-17T05:41:37.328Z,39.07
2022-09-17T05:43:41.608Z,39.28
2022-09-17T05:45:45.911Z,39.21
2022-09-17T05:47:50.275Z,39.18
2022-09-17T05:49:54.614Z,39.32
2022-09-17T05:51:58.978Z,39.15
2022-09-17T05:54:03.352Z,39.23
2022-09-17T05:56:07.635Z,39.45
2022-09-17T05:58:11.991Z,39.36
2022-09-17T06:00:16.304Z,39.22
2022-09-17T06:02:20.951Z,39.18
2022-09-17T06:04:25.343Z,39.41
2022-09-17T06:06:29.708Z,39.39
2022-09-17T06:08:34.049Z,39.42
2022-09-17T06:10:38.377Z,39.4
2022-09-17T06:12:42.657Z,39.25
2022-09-17T06:14:47.006Z,39.33
2022-09-17T06:16:51.286Z,39.31
2022-09-17T06:18:55.646Z,39.28
2022-09-17T06:20:59.901Z,39.22
2022-09-17T06:23:04.186Z,39.16
2022-09-17T06:25:08.541Z,39.42
2022-09-17T06:27:12.851Z,39.36
2022-09-17T06:29:17.305Z,39.39
2022-09-17T06:31:21.888Z,39.46
2022-09-17T06:33:26.282Z,39.28
2022-09-17T06:35:30.601Z,39.64
2022-09-17T06:37:34.930Z,39.48
2022-09-17T06:39:39.203Z,39.87
2022-09-17T06:41:43.516Z,39.57
2022-09-17T06:43:47.809Z,39.32
2022-09-17T06:45:52.133Z,39.43
2022-09-17T06:47:56.491Z,39.9
2022-09-17T06:50:00.805Z,39.74
2022-09-17T06:52:05.112Z,39.86
2022-09-17T06:54:09.401Z,39.59
2022-09-17T06:56:13.753Z,39.55
2022-09-17T06:58:18.080Z,39.51
2022-09-17T07:00:22.393Z,39.6
2022-09-17T07:02:26.920Z,39.81
2022-09-17T07:04:31.253Z,40.07
2022-09-17T07:06:35.676Z,40.05
2022-09-17T07:08:40.062Z,40.13
2022-09-17T07:10:44.367Z,40.55
2022-09-17T07:12:51.970Z,40.58
2022-09-17T07:14:56.283Z,40.8
2022-09-17T07:17:00.624Z,40.76
2022-09-17T07:19:04.929Z,40.6
2022-09-17T07:21:09.248Z,40.71
2022-09-17T07:23:13.557Z,41.2
2022-09-17T07:25:17.893Z,41.31
2022-09-17T07:27:22.241Z,41.17
2022-09-17T07:29:26.580Z,40.97
2022-09-17T07:31:31.162Z,41.88
2022-09-17T07:33:35.540Z,42.18
2022-09-17T07:35:39.829Z,42.55
2022-09-17T07:37:44.195Z,42.9
2022-09-17T07:39:48.490Z,42.85
2022-09-17T07:41:52.786Z,42.47
2022-09-17T07:43:57.262Z,42.92
2022-09-17T07:46:01.609Z,43
2022-09-17T07:48:05.960Z,43.2
2022-09-17T07:50:10.281Z,43.15
2022-09-17T07:52:14.594Z,43.14
2022-09-17T07:54:18.926Z,43.58
2022-09-17T07:56:23.311Z,43.4
2022-09-17T07:58:27.625Z,43.59
2022-09-17T08:00:31.933Z,43.5
2022-09-17T08:02:36.637Z,43.05
2022-09-17T08:04:41.053Z,42.85
2022-09-17T08:06:45.320Z,42.81
2022-09-17T08:08:49.728Z,42.7
2022-09-17T08:10:54.039Z,42.52
2022-09-17T08:12:58.339Z,42.57
2022-09-17T08:15:02.586Z,42.58
2022-09-17T08:17:06.826Z,42.48
2022-09-17T08:19:11.179Z,42.52
2022-09-17T08:21:15.520Z,42.29
2022-09-17T08:23:19.838Z,42.36
2022-09-17T08:25:24.147Z,42.32
2022-09-17T08:27:28.513Z,42.28
2022-09-17T08:29:37.031Z,42.26
2022-09-17T08:31:41.757Z,42.2
2022-09-17T08:33:46.108Z,42.24
2022-09-17T08:35:50.644Z,42.26
2022-09-17T08:37:55.140Z,42.11
2022-09-17T08:39:59.764Z,42.14
2022-09-17T08:42:04.076Z,42.12
2022-09-17T08:44:08.431Z,41.99
2022-09-17T08:46:13.021Z,42.04
2022-09-17T08:48:17.383Z,41.94
2022-09-17T08:50:21.853Z,41.98
2022-09-17T08:52:26.168Z,41.91
2022-09-17T08:54:30.482Z,41.82
2022-09-17T08:56:34.874Z,41.77
2022-09-17T08:58:39.219Z,41.75
2022-09-17T09:00:43.589Z,41.7
2022-09-17T09:02:48.203Z,41.62
2022-09-17T09:04:52.586Z,41.62
2022-09-17T09:06:56.982Z,41.58
2022-09-17T09:09:01.274Z,41.49
2022-09-17T09:11:05.615Z,41.59
2022-09-17T09:13:09.923Z,41.55
2022-09-17T09:15:14.198Z,41.46
2022-09-17T09:17:18.547Z,41.56
2022-09-17T09:19:22.860Z,41.45
2022-09-17T09:21:27.157Z,41.55
2022-09-17T09:23:31.456Z,41.57
2022-09-17T09:25:35.794Z,41.61
2022-09-17T09:27:40.109Z,41.6
2022-09-17T09:29:44.442Z,41.51
2022-09-17T09:31:49.046Z,41.58
2022-09-17T09:33:53.493Z,41.5
2022-09-17T09:35:57.794Z,41.49
2022-09-17T09:38:02.119Z,41.5
2022-09-17T09:40:06.678Z,41.52
2022-09-17T09:42:11.092Z,41.52
2022-09-17T09:44:16.098Z,41.47
2022-09-17T09:46:20.670Z,41.41
2022-09-17T09:48:25.031Z,41.4
2022-09-17T09:51:07.463Z,41.36
2022-09-17T09:53:11.897Z,41.35
2022-09-17T09:55:16.210Z,41.26
2022-09-17T09:57:20.513Z,41.38
2022-09-17T09:59:24.882Z,41.32
2022-09-17T10:01:29.533Z,41.28
2022-09-17T10:03:33.969Z,41.34
2022-09-17T10:05:38.316Z,41.45
2022-09-17T10:07:42.614Z,41.48
2022-09-17T10:09:46.927Z,41.5
2022-09-17T10:11:51.439Z,41.55
2022-09-17T10:13:55.740Z,41.61
2022-09-17T10:16:00.312Z,41.59
2022-09-17T10:18:04.680Z,41.6
2022-09-17T10:20:09.000Z,41.65
2022-09-17T10:22:13.345Z,41.6
2022-09-17T10:24:17.661Z,41.59
2022-09-17T10:26:22.000Z,41.52
2022-09-17T10:28:26.338Z,41.65
2022-09-17T10:30:30.681Z,41.57
2022-09-17T10:32:35.075Z,41.59
2022-09-17T10:34:39.385Z,41.59
2022-09-17T10:36:43.702Z,41.47
2022-09-17T10:38:48.190Z,41.35
2022-09-17T10:40:52.515Z,41.7
2022-09-17T10:42:56.884Z,41.63
2022-09-17T10:45:01.186Z,41.63
2022-09-17T10:47:05.660Z,41.51
2022-09-17T10:49:10.068Z,41.66
2022-09-17T10:51:14.377Z,41.55
2022-09-17T10:53:18.687Z,41.36
2022-09-17T10:55:23.024Z,41.71
2022-09-17T10:57:27.360Z,41.71
2022-09-17T10:59:31.736Z,41.6
2022-09-17T11:01:36.523Z,41.55
2022-09-17T11:03:40.938Z,41.4
2022-09-17T11:05:45.247Z,41.49
2022-09-17T11:07:49.553Z,41.51
2022-09-17T11:09:53.857Z,41.32
2022-09-17T11:11:58.194Z,41.19
2022-09-17T11:14:02.652Z,41.38
2022-09-17T11:16:07.373Z,41.29
2022-09-17T11:18:11.753Z,41.19
2022-09-17T11:20:16.120Z,41.13
2022-09-17T11:22:20.449Z,41.16
2022-09-17T11:24:24.840Z,41.13
2022-09-17T11:26:29.140Z,41.24
2022-09-17T11:28:33.412Z,41.5
2022-09-17T11:30:37.786Z,41.57
2022-09-17T11:32:42.142Z,41.56
2022-09-17T11:34:46.432Z,41.55
2022-09-17T11:36:50.787Z,41.5
2022-09-17T11:38:55.112Z,41.5
2022-09-17T11:40:59.496Z,41.6
2022-09-17T11:43:03.820Z,41.59
2022-09-17T11:45:08.141Z,41.58
2022-09-17T11:47:12.536Z,41.51
2022-09-17T11:49:16.877Z,41.34
2022-09-17T11:51:21.169Z,41.55
2022-09-17T11:53:25.656Z,41.54
2022-09-17T11:55:30.025Z,41.49
2022-09-17T11:57:34.403Z,41.6
2022-09-17T11:59:38.695Z,41.52
2022-09-17T12:01:43.263Z,41.57
2022-09-17T12:03:47.653Z,41.58
2022-09-17T12:05:51.944Z,41.48
2022-09-17T12:07:56.293Z,41.44
2022-09-17T12:10:00.607Z,41.54
2022-09-17T12:12:04.985Z,40.95
2022-09-17T12:14:09.321Z,41.08
2022-09-17T12:16:13.858Z,41.27
2022-09-17T12:18:35.098Z,41.3
2022-09-17T12:20:39.470Z,40.99
2022-09-17T12:22:43.789Z,41.23
2022-09-17T12:24:48.149Z,41.13
2022-09-17T12:26:52.615Z,41.27
2022-09-17T12:28:56.943Z,41.24
2022-09-17T12:31:01.398Z,41.12
2022-09-17T12:33:05.749Z,41.18
2022-09-17T12:35:10.083Z,41.12
2022-09-17T12:37:14.403Z,41.29
2022-09-17T12:39:18.773Z,41.13
2022-09-17T12:41:23.141Z,41
2022-09-17T12:43:27.442Z,40.97
2022-09-17T12:45:31.801Z,40.88
2022-09-17T12:47:36.170Z,40.83
2022-09-17T12:49:40.481Z,40.68
2022-09-17T12:51:44.773Z,40.55
2022-09-17T12:53:49.314Z,40.74
2022-09-17T12:55:53.655Z,41.06
2022-09-17T12:57:58.008Z,40.65
2022-09-17T13:00:09.479Z,40.52
2022-09-17T13:02:14.049Z,40.54
2022-09-17T13:04:18.390Z,40.5
2022-09-17T13:06:22.691Z,40.75
2022-09-17T13:08:27.042Z,40.59
2022-09-17T13:10:31.352Z,40.49
2022-09-17T13:12:35.891Z,40.59
2022-09-17T13:14:40.246Z,40.73
2022-09-17T13:16:44.937Z,40.92
2022-09-17T13:19:18.839Z,40.97
2022-09-17T13:21:23.369Z,40.85
2022-09-17T13:23:27.716Z,40.88
2022-09-17T13:25:32.060Z,40.93
2022-09-17T13:27:36.441Z,40.95
2022-09-17T13:29:40.783Z,40.96
2022-09-17T13:31:45.333Z,40.76
2022-09-17T13:33:49.716Z,40.85
2022-09-17T13:35:54.066Z,40.89
2022-09-17T13:37:58.371Z,40.64
2022-09-17T13:40:02.872Z,40.79
2022-09-17T13:42:07.288Z,40.7
2022-09-17T13:44:11.576Z,40.73
2022-09-17T13:46:16.140Z,40.84
2022-09-17T13:48:20.564Z,40.73
2022-09-17T13:50:24.891Z,40.55
2022-09-17T13:52:29.232Z,40.53
2022-09-17T13:54:33.525Z,40.69
2022-09-17T13:56:37.829Z,40.83
2022-09-17T13:58:42.189Z,40.94
2022-09-17T14:00:46.793Z,41.08
2022-09-17T14:02:51.394Z,40.96
2022-09-17T14:04:55.734Z,40.92
2022-09-17T14:07:00.106Z,40.92
2022-09-17T14:09:04.468Z,40.93
2022-09-17T14:11:08.804Z,41.02
2022-09-17T14:13:13.152Z,41.27
2022-09-17T14:15:17.522Z,41.21
2022-09-17T14:17:21.852Z,41.37
2022-09-17T14:19:26.232Z,41.29
2022-09-17T14:21:30.514Z,41.49
2022-09-17T14:23:34.822Z,41.55
2022-09-17T14:25:39.138Z,41.59
2022-09-17T14:27:44.528Z,41.7
2022-09-17T14:29:48.891Z,41.68
2022-09-17T14:31:53.258Z,41.68
2022-09-17T14:33:57.588Z,41.65
2022-09-17T14:36:01.922Z,41.44
2022-09-17T14:38:06.202Z,41.17
2022-09-17T14:40:11.000Z,40.54
2022-09-17T14:42:15.418Z,40.19
2022-09-17T14:44:19.780Z,39.7
2022-09-17T14:46:24.416Z,39.27
2022-09-17T14:48:28.948Z,39.32
2022-09-17T14:50:33.318Z,40.51
2022-09-17T14:52:37.735Z,40.47
2022-09-17T14:54:42.167Z,40.49
2022-09-17T14:56:46.502Z,40.65
2022-09-17T14:58:50.996Z,40.63
2022-09-17T15:00:55.322Z,40.85
2022-09-17T15:02:59.950Z,41.04
2022-09-17T15:05:04.350Z,40.9
2022-09-17T15:07:08.656Z,40.8
2022-09-17T15:09:12.926Z,40.67
2022-09-17T15:11:17.293Z,40.87
2022-09-17T15:13:21.650Z,40.79
2022-09-17T15:15:26.092Z,40.69
2022-09-17T15:17:30.380Z,40.92
2022-09-17T15:19:34.681Z,41.1
2022-09-17T15:21:39.040Z,41.27
2022-09-17T15:23:43.450Z,41.4
2022-09-17T15:25:47.766Z,41.47
2022-09-17T15:27:52.068Z,41.64
2022-09-17T15:29:56.441Z,41.89
2022-09-17T15:32:00.731Z,41.9
2022-09-17T15:34:05.061Z,42.16
2022-09-17T15:36:09.448Z,42.33
2022-09-17T15:38:25.408Z,42.34
2022-09-17T15:40:29.929Z,42.29
2022-09-17T15:42:34.427Z,42.54
2022-09-17T15:44:38.880Z,42.51
2022-09-17T15:46:43.505Z,42.63
2022-09-17T15:48:47.930Z,42.83
2022-09-17T15:50:52.238Z,42.78
2022-09-17T15:52:56.577Z,42.92
2022-09-17T15:55:00.918Z,43.06
2022-09-17T15:57:05.262Z,43.05
2022-09-17T15:59:09.649Z,43.08
2022-09-17T16:01:13.997Z,43.1
2022-09-17T16:03:18.367Z,43.2
2022-09-17T16:05:22.771Z,43.31
2022-09-17T16:07:27.118Z,43.5
2022-09-17T16:09:31.496Z,43.29
2022-09-17T16:11:35.890Z,43.43
2022-09-17T16:13:40.221Z,43.54
2022-09-17T16:15:44.820Z,43.59
2022-09-17T16:17:49.169Z,43.7
2022-09-17T16:19:53.491Z,43.28
2022-09-17T16:21:57.831Z,43.05
2022-09-17T16:24:02.083Z,43.4
2022-09-17T16:26:06.347Z,43.43
2022-09-17T16:28:10.632Z,43.44
2022-09-17T16:30:14.943Z,43.56
2022-09-17T16:32:19.265Z,43.75
2022-09-17T16:34:23.581Z,43.8
2022-09-17T16:36:27.977Z,43.72
2022-09-17T16:38:32.289Z,43.9
2022-09-17T16:40:36.964Z,44.04
2022-09-17T16:42:41.337Z,44.09
2022-09-17T16:44:45.684Z,44.2
2022-09-17T16:46:50.394Z,44.21
2022-09-17T16:48:54.909Z,44.39
2022-09-17T16:50:59.218Z,44.44
2022-09-17T16:53:07.405Z,44.42
2022-09-17T16:55:11.777Z,44.51
2022-09-17T16:57:16.090Z,44.59
2022-09-17T16:59:20.406Z,44.34
2022-09-17T17:01:25.124Z,44.14
2022-09-17T17:03:29.800Z,44.25
2022-09-17T17:05:34.176Z,44.16
2022-09-17T17:07:38.456Z,44.48
2022-09-17T17:09:42.802Z,44.52
2022-09-17T17:11:47.166Z,44.65
2022-09-17T17:13:51.648Z,44.68
2022-09-17T17:15:56.495Z,44.72
2022-09-17T17:18:00.939Z,44.99
2022-09-17T17:20:05.270Z,44.98
2022-09-17T17:22:09.575Z,45.34
2022-09-17T17:24:13.977Z,45.23
2022-09-17T17:26:18.316Z,45.46
2022-09-17T17:28:22.639Z,45.36
2022-09-17T17:30:26.968Z,45.6
2022-09-17T17:32:31.387Z,45.6
2022-09-17T17:34:35.706Z,45.51
2022-09-17T17:36:40.006Z,45.55
2022-09-17T17:38:44.317Z,45.66
2022-09-17T17:40:48.652Z,45.67
2022-09-17T17:42:53.025Z,45.7
2022-09-17T17:44:57.338Z,45.76
2022-09-17T17:47:01.847Z,45.61
2022-09-17T17:49:06.175Z,45.62
2022-09-17T17:51:10.552Z,45.78
2022-09-17T17:53:14.894Z,45.72
2022-09-17T17:55:19.190Z,45.66
2022-09-17T17:57:23.583Z,45.75
2022-09-17T17:59:27.937Z,45.81
2022-09-17T18:01:32.719Z,45.72
2022-09-17T18:03:37.149Z,45.71
2022-09-17T18:05:41.676Z,45.62
2022-09-17T18:07:46.051Z,45.42
2022-09-17T18:09:50.457Z,45.34
2022-09-17T18:11:54.967Z,45.16
2022-09-17T18:13:59.644Z,45.02
2022-09-17T18:16:04.196Z,44.97
2022-09-17T18:18:08.728Z,45.38
2022-09-17T18:20:13.101Z,45.45
2022-09-17T18:22:18.112Z,45.54
2022-09-17T18:24:22.467Z,45.54
2022-09-17T18:26:26.906Z,45.6
2022-09-17T18:28:31.734Z,45.51
2022-09-17T18:30:36.079Z,45.49
2022-09-17T18:32:40.611Z,45.7
2022-09-17T18:34:45.265Z,45.47
2022-09-17T18:36:53.218Z,45.67
2022-09-17T18:38:57.665Z,45.72
2022-09-17T18:41:02.039Z,45.72
2022-09-17T18:43:06.490Z,46.13
2022-09-17T18:45:10.846Z,45.98
2022-09-17T18:47:15.339Z,46.24
2022-09-17T18:49:19.690Z,45.86
2022-09-17T18:51:24.447Z,46.35
2022-09-17T18:53:29.081Z,45.96
2022-09-17T18:55:34.115Z,46.27
2022-09-17T18:57:38.433Z,46.03
2022-09-17T18:59:42.938Z,46.03
2022-09-17T19:01:47.516Z,46.04
2022-09-17T19:03:52.917Z,46.13
2022-09-17T19:05:57.205Z,46.13
2022-09-17T19:08:01.602Z,46.25
2022-09-17T19:10:05.917Z,46.19
2022-09-17T19:12:10.306Z,46.48
2022-09-17T19:14:14.673Z,46.24
2022-09-17T19:16:20.410Z,46.14
2022-09-17T19:18:25.442Z,46.22
2022-09-17T19:20:29.781Z,46.17
2022-09-17T19:22:34.275Z,46.05
2022-09-17T19:24:38.863Z,46.08
2022-09-17T19:26:44.836Z,46.03
2022-09-17T19:28:51.205Z,46.13
2022-09-17T19:30:56.401Z,45.84
2022-09-17T19:33:01.411Z,45.82
2022-09-17T19:35:06.716Z,46.36
2022-09-17T19:37:11.265Z,45.97
2022-09-17T19:39:15.938Z,45.97
2022-09-17T19:41:20.663Z,46.1
2022-09-17T19:43:26.460Z,46.4
2022-09-17T19:45:31.791Z,47.11
2022-09-17T19:47:36.264Z,47.04
2022-09-17T19:49:41.144Z,47.12
2022-09-17T19:51:45.690Z,46.13
2022-09-17T19:53:50.470Z,44.41
2022-09-17T19:55:55.160Z,45.06
2022-09-17T19:57:59.502Z,43.16
2022-09-17T20:00:03.947Z,42.79
2022-09-17T20:02:08.585Z,42.43
2022-09-17T20:04:13.218Z,42.16
2022-09-17T20:06:17.499Z,41.42
2022-09-17T20:08:21.843Z,41.39
2022-09-17T20:10:26.915Z,41.53
2022-09-17T20:12:31.706Z,41.25
2022-09-17T20:14:36.059Z,41.07
2022-09-17T20:16:40.354Z,40.97
2022-09-17T20:18:44.678Z,40.85
2022-09-17T20:20:49.199Z,40.51
2022-09-17T20:22:54.059Z,40.5
2022-09-17T20:24:59.116Z,40.38
2022-09-17T20:27:03.527Z,40.35
2022-09-17T20:29:07.848Z,40.07
2022-09-17T20:31:13.676Z,40.1
2022-09-17T20:33:25.021Z,40.02
2022-09-17T20:35:29.335Z,39.82
2022-09-17T20:39:10.997Z,39.41
2022-09-17T20:41:16.624Z,39.56
2022-09-17T20:43:20.977Z,39.58
2022-09-17T20:45:25.612Z,39.47
2022-09-17T20:47:30.440Z,39.41
2022-09-17T20:49:34.799Z,39.35
2022-09-17T20:51:39.149Z,39.24
2022-09-17T20:53:43.467Z,39.36
2022-09-17T20:55:47.772Z,39.01
2022-09-17T20:57:53.339Z,39.1
2022-09-17T20:59:57.655Z,39.03
2022-09-17T21:02:02.214Z,39.1
2022-09-17T21:04:06.893Z,39.02
2022-09-17T21:06:11.338Z,38.8
2022-09-17T21:08:15.633Z,38.82
2022-09-17T21:10:20.064Z,38.79
2022-09-17T21:12:29.426Z,38.92
2022-09-17T21:14:34.471Z,38.76
2022-09-17T21:16:38.814Z,38.5
2022-09-17T21:18:43.186Z,38.86
2022-09-17T21:20:47.472Z,38.63
2022-09-17T21:22:51.806Z,38.46
2022-09-17T21:24:56.119Z,38.44
2022-09-17T21:27:00.451Z,38.41
2022-09-17T21:29:04.824Z,38.54
2022-09-17T21:31:09.485Z,38.16
2022-09-17T21:33:13.806Z,38.15
2022-09-17T21:35:18.122Z,38.16
2022-09-17T21:37:22.460Z,38.23
2022-09-17T21:39:26.953Z,38.07
2022-09-17T21:41:31.302Z,37.99
2022-09-17T21:43:35.952Z,38.07
2022-09-17T21:45:40.614Z,38.36
2022-09-17T21:47:45.225Z,38.02
2022-09-17T21:49:49.554Z,37.98
2022-09-17T21:51:53.995Z,38.05
2022-09-17T21:53:58.448Z,37.76
2022-09-17T21:56:02.834Z,37.8
2022-09-17T21:58:07.392Z,37.82
2022-09-17T22:00:11.708Z,37.62
2022-09-17T22:02:18.197Z,37.7
2022-09-17T22:04:23.966Z,37.65
2022-09-17T22:06:28.298Z,37.6
2022-09-17T22:08:36.543Z,37.55
2022-09-17T22:10:40.836Z,37.49
2022-09-17T22:12:45.194Z,37.6
2022-09-17T22:14:49.950Z,37.55
2022-09-17T22:16:54.275Z,37.55
2022-09-17T22:18:58.628Z,37.41
2022-09-17T22:21:05.296Z,37.53
2022-09-17T22:23:10.059Z,37.48
2022-09-17T22:25:17.156Z,37.43
2022-09-17T22:27:24.489Z,37.46
2022-09-17T22:29:28.873Z,37.47
2022-09-17T22:31:33.695Z,37.4
2022-09-17T22:33:38.088Z,37.31
2022-09-17T22:35:42.510Z,37.35
2022-09-17T22:37:46.796Z,37.38
2022-09-17T22:39:51.127Z,37.26
2022-09-17T22:41:55.550Z,37.21
2022-09-17T22:44:03.020Z,37.15
2022-09-17T22:46:10.668Z,37.03
2022-09-17T22:48:18.060Z,37.17
2022-09-17T22:50:22.381Z,36.87
2022-09-17T22:52:26.699Z,36.88
2022-09-17T22:54:32.244Z,37
2022-09-17T22:56:39.616Z,36.88
2022-09-17T22:58:43.934Z,36.88
2022-09-17T23:00:48.226Z,36.95
2022-09-17T23:02:52.710Z,37.03
2022-09-17T23:04:57.057Z,36.77
2022-09-17T23:07:01.388Z,36.9
2022-09-17T23:09:05.709Z,36.77
2022-09-17T23:11:10.072Z,36.8
2022-09-17T23:13:14.402Z,36.86
2022-09-17T23:15:18.706Z,36.75
2022-09-17T23:17:30.262Z,36.83
2022-09-17T23:19:34.545Z,36.82
2022-09-17T23:21:38.882Z,36.68
2022-09-17T23:23:43.194Z,36.82
2022-09-17T23:25:47.522Z,36.8
2022-09-17T23:27:51.824Z,36.95
2022-09-17T23:29:56.149Z,36.91
2022-09-17T23:32:00.481Z,36.75
2022-09-17T23:34:04.805Z,36.84
2022-09-17T23:36:09.156Z,36.73
2022-09-17T23:38:13.462Z,36.78
2022-09-17T23:40:18.083Z,36.81
2022-09-17T23:42:22.448Z,36.75
2022-09-17T23:44:26.772Z,36.77
2022-09-17T23:46:31.430Z,36.78
2022-09-17T23:48:35.778Z,36.72
2022-09-17T23:50:40.118Z,36.8
2022-09-17T23:52:44.424Z,36.73
2022-09-17T23:54:48.735Z,36.59
2022-09-17T23:56:53.064Z,36.64
2022-09-17T23:58:57.378Z,36.61
